Time;durP1;ratioP1;P1;durP2;ratioP2;P2;SDS_P1;SDS_P2;PMS_P1;PMS_P2;Temp;Humidity;BMP_temperature;BMP_pressure;BME280_temperature;BME280_humidity;BME280_pressure;Samples;Min_cycle;Max_cycle;Signal;HPM_P1;HPM_P2
2022/10/06 00:00:22;;;;;;;574.78;320.10;;;;;;;;;;5092346;28;20029;-76
2022/10/06 00:02:48;;;;;;;534.15;307.65;;;;;;;;;;5093003;28;20051;-77
2022/10/06 00:05:14;;;;;;;515.78;283.67;;;;;;;;;;5093547;28;20029;-76
2022/10/06 00:07:40;;;;;;;569.47;292.20;;;;;;;;;;5093243;28;20025;-76
2022/10/06 00:10:08;;;;;;;641.35;309.38;;;;;;;;;;5093491;28;20052;-76
2022/10/06 00:12:38;;;;;;;603.58;284.50;;;;;;;;;;5093764;28;20406;-76
2022/10/06 00:15:05;;;;;;;594.42;297.65;;;;;;;;;;5093041;28;20089;-76
2022/10/06 00:17:31;;;;;;;587.92;282.35;;;;;;;;;;5093354;28;20465;-76
2022/10/06 00:19:57;;;;;;;576.05;295.80;;;;;;;;;;5093430;28;20035;-76
2022/10/06 00:22:23;;;;;;;473.13;258.00;;;;;;;;;;5092948;28;20032;-76
2022/10/06 00:24:49;;;;;;;532.88;297.98;;;;;;;;;;5093434;28;20031;-76
2022/10/06 00:27:15;;;;;;;504.65;277.27;;;;;;;;;;5092097;28;20505;-76
2022/10/06 00:29:41;;;;;;;494.35;257.20;;;;;;;;;;5093022;28;20024;-76
2022/10/06 00:32:08;;;;;;;515.08;274.73;;;;;;;;;;5093373;28;20024;-77
2022/10/06 00:34:38;;;;;;;609.17;284.25;;;;;;;;;;5093512;28;20074;-77
2022/10/06 00:37:04;;;;;;;665.60;317.23;;;;;;;;;;5091557;28;20120;-76
2022/10/06 00:39:30;;;;;;;667.42;316.45;;;;;;;;;;5092043;28;20020;-75
2022/10/06 00:41:58;;;;;;;681.58;321.48;;;;;;;;;;5093109;28;20024;-76
2022/10/06 00:44:24;;;;;;;564.05;282.40;;;;;;;;;;5093018;28;20107;-76
2022/10/06 00:46:52;;;;;;;583.83;285.35;;;;;;;;;;5093447;28;20464;-76
2022/10/06 00:49:21;;;;;;;548.65;278.65;;;;;;;;;;5093195;28;20480;-76
2022/10/06 00:51:48;;;;;;;535.40;279.67;;;;;;;;;;5096592;28;20028;-76
2022/10/06 00:54:16;;;;;;;510.08;268.25;;;;;;;;;;5096948;28;20020;-76
2022/10/06 00:56:42;;;;;;;571.30;277.38;;;;;;;;;;5096915;28;20058;-76
2022/10/06 00:59:09;;;;;;;499.35;266.65;;;;;;;;;;5096461;28;20073;-75
2022/10/06 01:01:36;;;;;;;489.83;260.52;;;;;;;;;;5095260;28;20392;-75
2022/10/06 01:04:05;;;;;;;522.38;272.60;;;;;;;;;;5096234;28;20040;-76
2022/10/06 01:06:40;;;;;;;561.28;281.73;;;;;;;;;;5096686;28;20405;-77
2022/10/06 01:09:06;;;;;;;553.40;279.10;;;;;;;;;;5097261;28;20031;-76
2022/10/06 01:11:35;;;;;;;515.47;269.85;;;;;;;;;;5096340;28;20477;-76
2022/10/06 01:14:01;;;;;;;456.77;251.23;;;;;;;;;;5096535;28;20016;-76
2022/10/06 01:16:27;;;;;;;471.17;254.88;;;;;;;;;;5096563;28;20028;-76
2022/10/06 01:18:54;;;;;;;499.75;266.27;;;;;;;;;;5096001;28;20056;-76
2022/10/06 01:21:29;;;;;;;505.23;268.85;;;;;;;;;;5095095;28;20036;-76
2022/10/06 01:23:56;;;;;;;495.20;261.88;;;;;;;;;;5095059;28;20044;-76
2022/10/06 01:26:23;;;;;;;523.70;268.55;;;;;;;;;;5096002;28;20116;-76
2022/10/06 01:28:49;;;;;;;514.90;261.92;;;;;;;;;;5096327;28;20032;-76
2022/10/06 01:31:15;;;;;;;547.17;276.17;;;;;;;;;;5096157;28;20020;-77
2022/10/06 01:33:41;;;;;;;526.80;274.27;;;;;;;;;;5095808;28;20437;-77
2022/10/06 01:36:07;;;;;;;499.52;258.75;;;;;;;;;;5096116;28;20028;-76
2022/10/06 01:41:59;;;;;;;571.60;283.15;;;;;;;;;;5096011;28;20093;-76
2022/10/06 01:44:25;;;;;;;588.67;285.27;;;;;;;;;;5095972;28;20047;-76
2022/10/06 01:46:51;;;;;;;581.70;264.67;;;;;;;;;;5095547;28;20019;-76
2022/10/06 01:49:17;;;;;;;588.15;284.77;;;;;;;;;;5094576;28;20028;-76
2022/10/06 01:51:45;;;;;;;562.50;290.95;;;;;;;;;;5096133;28;20043;-76
2022/10/06 01:54:11;;;;;;;591.03;293.25;;;;;;;;;;5095469;28;20365;-76
2022/10/06 01:56:37;;;;;;;502.15;272.08;;;;;;;;;;5095733;28;20024;-76
2022/10/06 01:59:03;;;;;;;529.50;275.48;;;;;;;;;;5095789;28;20016;-76
2022/10/06 02:01:29;;;;;;;545.40;273.13;;;;;;;;;;5095153;28;20095;-76
2022/10/06 02:03:55;;;;;;;531.50;279.20;;;;;;;;;;5095338;28;20052;-76
2022/10/06 02:06:21;;;;;;;490.65;255.55;;;;;;;;;;5095631;28;20016;-76
2022/10/06 02:08:48;;;;;;;414.42;238.43;;;;;;;;;;5095047;28;20028;-76
2022/10/06 02:11:14;;;;;;;436.80;246.50;;;;;;;;;;5095426;28;20046;-76
2022/10/06 02:13:40;;;;;;;447.05;247.07;;;;;;;;;;5095340;28;20034;-77
2022/10/06 02:16:08;;;;;;;466.67;254.02;;;;;;;;;;5094966;28;20035;-76
2022/10/06 02:18:34;;;;;;;441.45;250.63;;;;;;;;;;5095251;28;20020;-76
2022/10/06 02:21:01;;;;;;;449.45;248.93;;;;;;;;;;5094043;28;20035;-76
2022/10/06 02:23:28;;;;;;;434.20;255.73;;;;;;;;;;5094752;28;20036;-76
2022/10/06 02:26:02;;;;;;;359.35;219.80;;;;;;;;;;5095152;28;20383;-76
2022/10/06 02:28:28;;;;;;;;;;;;;;;;;;5093947;28;20037;-76
2022/10/06 02:30:55;;;;;;;405.52;230.02;;;;;;;;;;5095130;28;19911;-76
2022/10/06 02:33:21;;;;;;;422.10;237.55;;;;;;;;;;5095190;28;20044;-77
2022/10/06 02:35:47;;;;;;;407.02;233.52;;;;;;;;;;5093281;28;20452;-77
2022/10/06 02:38:13;;;;;;;424.63;243.18;;;;;;;;;;5093670;28;20020;-76
2022/10/06 02:40:40;;;;;;;393.38;224.90;;;;;;;;;;5095078;28;20056;-76
2022/10/06 02:43:06;;;;;;;338.23;207.45;;;;;;;;;;5094390;28;20043;-76
2022/10/06 02:45:32;;;;;;;340.52;212.23;;;;;;;;;;5093582;28;20028;-77
2022/10/06 02:47:58;;;;;;;347.25;213.38;;;;;;;;;;5094685;28;20020;-77
2022/10/06 02:50:24;;;;;;;365.02;218.32;;;;;;;;;;5094497;28;20032;-77
2022/10/06 02:52:50;;;;;;;330.38;209.48;;;;;;;;;;5094763;28;20024;-77
2022/10/06 02:55:17;;;;;;;343.10;212.10;;;;;;;;;;5095150;28;20529;-77
2022/10/06 02:57:43;;;;;;;344.10;211.18;;;;;;;;;;5094234;28;20468;-77
2022/10/06 03:00:10;;;;;;;358.50;219.77;;;;;;;;;;5093152;28;20036;-77
2022/10/06 03:02:36;;;;;;;398.40;231.07;;;;;;;;;;5094213;28;20048;-76
2022/10/06 03:05:02;;;;;;;393.30;227.02;;;;;;;;;;5094072;28;20020;-76
2022/10/06 03:07:28;;;;;;;390.10;231.15;;;;;;;;;;5094432;28;20073;-77
2022/10/06 03:09:55;;;;;;;397.20;230.68;;;;;;;;;;5094345;28;20099;-77
2022/10/06 03:12:21;;;;;;;394.65;228.88;;;;;;;;;;5093537;28;20024;-77
2022/10/06 03:14:48;;;;;;;376.67;224.45;;;;;;;;;;5093001;28;20038;-77
2022/10/06 03:17:14;;;;;;;324.83;208.82;;;;;;;;;;5092968;28;20032;-77
2022/10/06 03:19:41;;;;;;;337.52;211.00;;;;;;;;;;5093827;28;20020;-77
2022/10/06 03:22:07;;;;;;;337.20;213.55;;;;;;;;;;5092845;28;20032;-77
2022/10/06 03:24:33;;;;;;;325.63;208.13;;;;;;;;;;5093739;28;20426;-77
2022/10/06 03:27:00;;;;;;;326.10;210.15;;;;;;;;;;5094071;28;20020;-77
2022/10/06 03:29:29;;;;;;;311.00;204.82;;;;;;;;;;5092700;28;20028;-77
2022/10/06 03:31:55;;;;;;;312.17;204.23;;;;;;;;;;5093648;28;20016;-77
2022/10/06 03:34:22;;;;;;;270.38;187.00;;;;;;;;;;5094206;28;20031;-77
2022/10/06 03:36:49;;;;;;;255.73;181.45;;;;;;;;;;5093982;28;20016;-77
2022/10/06 03:39:15;;;;;;;267.00;190.40;;;;;;;;;;5093533;28;20036;-77
2022/10/06 03:41:41;;;;;;;264.90;189.45;;;;;;;;;;5092542;28;20028;-77
2022/10/06 03:44:07;;;;;;;255.30;183.82;;;;;;;;;;5094026;28;20115;-77
2022/10/06 03:46:35;;;;;;;235.80;182.25;;;;;;;;;;5093484;28;20070;-77
2022/10/06 03:49:01;;;;;;;180.40;155.43;;;;;;;;;;5092477;28;20483;-77
2022/10/06 03:51:31;;;;;;;160.33;143.57;;;;;;;;;;5093921;28;20024;-77
2022/10/06 03:53:58;;;;;;;168.57;150.07;;;;;;;;;;5093558;28;20028;-77
2022/10/06 03:56:24;;;;;;;;;;;;;;;;;;5094026;28;20028;-77
2022/10/06 03:58:50;;;;;;;;;;;;;;;;;;5093993;28;19904;-77
2022/10/06 04:01:16;;;;;;;;;;;;;;;;;;5093615;28;19939;-77
2022/10/06 04:03:42;;;;;;;;;;;;;;;;;;5093831;28;19963;-77
2022/10/06 04:06:08;;;;;;;;;;;;;;;;;;5095631;28;19903;-77
2022/10/06 04:08:34;;;;;;;;;;;;;;;;;;5093703;28;19957;-77
2022/10/06 04:11:00;;;;;;;;;;;;;;;;;;5093993;28;19929;-77
2022/10/06 04:13:26;;;;;;;;;;;;;;;;;;5094119;28;19904;-77
2022/10/06 04:15:52;;;;;;;153.82;138.68;;;;;;;;;;5091987;28;20398;-77
2022/10/06 04:18:18;;;;;;;;;;;;;;;;;;5093950;28;20020;-78
2022/10/06 04:20:44;;;;;;;;;;;;;;;;;;5093518;28;19904;-77
2022/10/06 04:23:10;;;;;;;;;;;;;;;;;;5093828;28;20339;-77
2022/10/06 04:25:36;;;;;;;;;;;;;;;;;;5097600;28;19911;-77
2022/10/06 04:28:02;;;;;;;;;;;;;;;;;;5107604;28;19993;-78
2022/10/06 04:30:29;;;;;;;;;;;;;;;;;;5113394;28;19926;-78
2022/10/06 04:32:54;;;;;;;;;;;;;;;;;;5107858;28;19939;-78
2022/10/06 04:35:22;;;;;;;;;;;;;;;;;;5097761;28;20360;-77
2022/10/06 04:37:48;;;;;;;;;;;;;;;;;;5097728;28;19911;-77
2022/10/06 04:40:14;;;;;;;;;;;;;;;;;;5097927;28;20260;-77
2022/10/06 04:42:41;;;;;;;;;;;;;;;;;;5097087;28;19919;-76
2022/10/06 04:45:07;;;;;;;;;;;;;;;;;;5097658;28;19925;-76
2022/10/06 04:47:33;;;;;;;;;;;;;;;;;;5097518;28;19920;-77
2022/10/06 04:49:59;;;;;;;221.33;175.67;;;;;;;;;;5096229;28;20400;-76
2022/10/06 04:52:25;;;;;;;122.68;113.00;;;;;;;;;;5097071;28;20739;-75
2022/10/06 04:54:51;;;;;;;;;;;;;;;;;;5096106;28;20028;-76
2022/10/06 04:57:17;;;;;;;;;;;;;;;;;;5096850;28;20359;-76
2022/10/06 05:02:28;;;;;;;;;;;;;;;;;;5097046;28;20072;-76
2022/10/06 05:04:54;;;;;;;;;;;;;;;;;;5096761;28;19904;-76
2022/10/06 05:07:20;;;;;;;;;;;;;;;;;;5096971;28;19911;-76
2022/10/06 05:09:46;;;;;;;;;;;;;;;;;;5097085;28;19907;-76
2022/10/06 05:12:12;;;;;;;;;;;;;;;;;;5093841;28;20356;-75
2022/10/06 05:14:38;;;;;;;;;;;;;;;;;;5095827;28;20352;-72
2022/10/06 05:17:04;;;;;;;;;;;;;;;;;;5105830;28;19908;-74
2022/10/06 05:19:30;;;;;;;;;;;;;;;;;;5095038;28;19911;-73
2022/10/06 05:21:56;;;;;;;;;;;;;;;;;;5075981;28;19904;-73
2022/10/06 05:24:22;;;;;;;;;;;;;;;;;;5092857;28;19915;-74
2022/10/06 05:26:48;;;;;;;;;;;;;;;;;;5095076;28;19910;-75
2022/10/06 05:29:14;;;;;;;;;;;;;;;;;;5092855;28;20341;-76
2022/10/06 05:31:42;;;;;;;;;;;;;;;;;;5091872;28;20382;-71
2022/10/06 05:34:08;;;;;;;;;;;;;;;;;;5091833;28;19904;-72
2022/10/06 05:36:34;;;;;;;;;;;;;;;;;;5093131;28;19904;-68
2022/10/06 05:39:00;;;;;;;;;;;;;;;;;;5093297;28;19948;-71
2022/10/06 05:41:25;;;;;;;;;;;;;;;;;;5091570;28;19904;-79
2022/10/06 05:43:54;;;;;;;;;;;;;;;;;;5093625;28;19915;-77
2022/10/06 05:46:22;;;;;;;;;;;;;;;;;;5093508;28;20353;-77
2022/10/06 05:48:48;;;;;;;;;;;;;;;;;;5093912;28;19904;-77
2022/10/06 05:51:14;;;;;;;;;;;;;;;;;;5093826;28;19949;-76
2022/10/06 05:53:40;;;;;;;;;;;;;;;;;;5091998;28;19904;-76
2022/10/06 05:56:06;;;;;;;;;;;;;;;;;;5090653;28;20007;-78
2022/10/06 05:58:32;;;;;;;;;;;;;;;;;;5073372;28;20349;-79
2022/10/06 06:00:58;;;;;;;;;;;;;;;;;;5084270;28;19947;-79
2022/10/06 06:03:24;;;;;;;;;;;;;;;;;;5095868;28;20416;-79
2022/10/06 06:05:50;;;;;;;;;;;;;;;;;;5089918;28;19908;-76
2022/10/06 06:08:16;;;;;;;;;;;;;;;;;;5092504;28;19912;-74
2022/10/06 06:10:42;;;;;;;;;;;;;;;;;;5091958;28;19912;-74
2022/10/06 06:13:09;;;;;;;;;;;;;;;;;;5092169;28;20340;-71
2022/10/06 06:18:20;;;;;;;;;;;;;;;;;;5091755;28;19981;-74
2022/10/06 06:20:46;;;;;;;;;;;;;;;;;;5082054;28;19904;-72
2022/10/06 06:23:11;;;;;;;;;;;;;;;;;;5072518;28;20398;-75
2022/10/06 06:25:37;;;;;;;;;;;;;;;;;;5072903;28;20368;-75
2022/10/06 06:28:04;;;;;;;;;;;;;;;;;;5072289;28;20315;-74
2022/10/06 06:30:30;;;;;;;;;;;;;;;;;;5072244;28;20327;-75
2022/10/06 06:32:59;;;;;;;;;;;;;;;;;;5072808;28;19995;-72
2022/10/06 06:35:25;;;;;;;;;;;;;;;;;;5072342;28;19904;-74
2022/10/06 06:37:51;;;;;;;;;;;;;;;;;;5071118;28;19954;-73
2022/10/06 06:40:17;;;;;;;;;;;;;;;;;;5072801;28;19905;-72
2022/10/06 06:42:42;;;;;;;;;;;;;;;;;;5072335;28;19912;-72
2022/10/06 06:45:08;;;;;;;;;;;;;;;;;;5073813;28;19904;-76
2022/10/06 06:47:34;;;;;;;;;;;;;;;;;;5071731;28;20344;-71
2022/10/06 06:50:01;;;;;;;468.15;273.90;;;;;;;;;;5071597;28;20893;-71
2022/10/06 06:52:28;;;;;;;;;;;;;;;;;;5072472;28;20043;-74
2022/10/06 06:54:55;;;;;;;;;;;;;;;;;;5075452;28;19911;-73
2022/10/06 06:57:21;;;;;;;;;;;;;;;;;;5094016;28;19904;-72
2022/10/06 06:59:47;;;;;;;;;;;;;;;;;;5093694;28;20275;-74
2022/10/06 07:02:13;;;;;;;;;;;;;;;;;;5092755;28;19916;-71
2022/10/06 07:04:39;;;;;;;;;;;;;;;;;;5092977;28;19908;-73
2022/10/06 07:07:05;;;;;;;;;;;;;;;;;;5092805;28;19912;-75
2022/10/06 07:09:31;;;;;;;;;;;;;;;;;;5091083;28;19931;-76
2022/10/06 07:11:57;;;;;;;;;;;;;;;;;;5090514;28;19996;-73
2022/10/06 07:14:23;;;;;;;;;;;;;;;;;;5090562;28;19991;-74
2022/10/06 07:25:06;;;;;;;;;;;;;;;;;;5084513;28;19915;-73
2022/10/06 07:27:32;;;;;;;;;;;;;;;;;;5090721;28;19904;-78
2022/10/06 07:29:58;;;;;;;;;;;;;;;;;;5097676;28;19915;-77
2022/10/06 07:32:24;;;;;;;;;;;;;;;;;;5070571;28;20241;-76
2022/10/06 07:36:05;;;;;;;;;;;;;;;;;;5127261;27;20470;-79
2022/10/06 07:38:31;;;;;;;;;;;;;;;;;;5097065;28;20014;-79
2022/10/06 07:40:57;;;;;;;;;;;;;;;;;;5092783;28;19984;-79
2022/10/06 07:43:23;;;;;;;;;;;;;;;;;;5089946;28;19916;-77
2022/10/06 07:45:49;;;;;;;;;;;;;;;;;;5088659;28;19915;-81
2022/10/06 07:48:16;;;;;;;;;;;;;;;;;;5109798;28;19912;-74
2022/10/06 07:50:43;;;;;;;;;;;;;;;;;;5103956;28;19914;-75
2022/10/06 07:54:58;;;;;;;503.83;367.27;;;;;;;;;;5098138;27;21163;-71
2022/10/06 07:57:33;;;;;;;448.05;245.43;;;;;;;;;;5103164;28;20923;-74
2022/10/06 07:59:59;;;;;;;;;;;;;;;;;;5084275;28;20024;-73
2022/10/06 08:02:25;;;;;;;;;;;;;;;;;;5085840;28;20022;-75
2022/10/06 08:05:29;;;;;;;;;;;;;;;;;;5107197;27;20418;-74
2022/10/06 08:09:21;;;;;;;614.53;372.02;;;;;;;;;;5064770;28;20399;-73
2022/10/06 08:11:47;;;;;;;633.42;281.63;;;;;;;;;;5064955;28;20090;-72
2022/10/06 08:14:14;;;;;;;562.28;286.30;;;;;;;;;;5066451;28;20021;-75
2022/10/06 08:16:40;;;;;;;605.28;298.48;;;;;;;;;;5065986;28;20479;-72
2022/10/06 08:21:15;;;;;;;563.22;317.15;;;;;;;;;;5105915;27;20879;-72
2022/10/06 08:23:41;;;;;;;;;;;;;;;;;;5093986;28;20153;-74
2022/10/06 08:26:07;;;;;;;644.67;385.38;;;;;;;;;;5100373;28;20389;-74
2022/10/06 08:28:35;;;;;;;279.95;205.30;;;;;;;;;;5106241;28;20024;-75
2022/10/06 08:33:02;;;;;;;581.95;301.38;;;;;;;;;;5105622;27;20347;-75
2022/10/06 08:35:31;;;;;;;519.00;284.60;;;;;;;;;;5108363;28;20028;-75
2022/10/06 08:40:49;;;;;;;552.35;307.90;;;;;;;;;;5109411;27;20986;-72
2022/10/06 08:44:59;;;;;;;604.42;318.45;;;;;;;;;;5109838;27;20949;-72
2022/10/06 08:47:28;;;;;;;697.95;305.23;;;;;;;;;;5078773;28;20055;-73
2022/10/06 08:50:46;;;;;;;592.90;323.08;;;;;;;;;;5067154;28;20427;-74
2022/10/06 08:54:13;;;;;;;605.40;344.95;;;;;;;;;;5107047;27;20756;-73
2022/10/06 08:59:04;;;;;;;597.00;340.38;;;;;;;;;;5108276;27;20388;-72
2022/10/06 09:08:40;;;;;;;611.75;346.08;;;;;;;;;;5106951;27;20462;-72
2022/10/06 09:11:09;;;;;;;603.72;321.25;;;;;;;;;;5105803;28;20031;-75
2022/10/06 09:13:36;;;;;;;624.60;332.15;;;;;;;;;;5106337;28;20041;-75
2022/10/06 09:17:37;;;;;;;689.05;332.55;;;;;;;;;;5106901;27;20824;-77
2022/10/06 09:22:10;;;;;;;640.78;319.85;;;;;;;;;;5106780;27;20454;-72
2022/10/06 09:26:45;;;;;;;684.08;327.23;;;;;;;;;;5107519;27;20970;-73
2022/10/06 09:29:59;;;;;;;686.20;327.23;;;;;;;;;;5110519;27;20389;-78
2022/10/06 09:34:44;;;;;;;729.97;313.35;;;;;;;;;;5151791;27;20755;-80
2022/10/06 09:39:25;;;;;;;728.38;319.50;;;;;;;;;;5110531;27;20404;-74
2022/10/06 09:43:34;;;;;;;710.50;320.20;;;;;;;;;;5108843;27;20442;-73
2022/10/06 09:46:19;;;;;;;760.25;326.73;;;;;;;;;;5068450;28;20469;-72
2022/10/06 09:48:46;;;;;;;750.72;324.00;;;;;;;;;;5066968;28;20017;-70
2022/10/06 09:51:16;;;;;;;769.03;327.00;;;;;;;;;;5069645;28;20029;-70
2022/10/06 09:55:17;;;;;;;747.20;329.40;;;;;;;;;;5109003;27;20935;-73
2022/10/06 09:57:50;;;;;;;763.75;323.23;;;;;;;;;;5107968;28;20024;-71
2022/10/06 10:00:28;;;;;;;758.80;306.60;;;;;;;;;;5108015;28;20046;-71
2022/10/06 10:02:59;;;;;;;750.22;320.35;;;;;;;;;;5107801;28;20020;-73
2022/10/06 10:05:54;;;;;;;668.92;312.50;;;;;;;;;;5105943;27;20430;-72
2022/10/06 10:08:24;;;;;;;629.30;301.48;;;;;;;;;;5105314;28;20050;-72
2022/10/06 10:13:42;;;;;;;645.35;308.23;;;;;;;;;;5113389;27;20469;-73
2022/10/06 10:16:14;;;;;;;648.78;318.08;;;;;;;;;;5106597;28;20028;-73
2022/10/06 10:19:52;;;;;;;671.22;314.90;;;;;;;;;;5166367;27;20128;-72
2022/10/06 10:22:22;;;;;;;662.60;315.00;;;;;;;;;;5146861;27;20045;-72
2022/10/06 10:25:14;;;;;;;607.83;353.45;;;;;;;;;;5104717;27;20484;-75
2022/10/06 10:27:57;;;;;;;618.15;375.00;;;;;;;;;;5106835;28;20367;-75
2022/10/06 10:31:05;;;;;;;686.03;316.23;;;;;;;;;;5109039;27;20450;-73
2022/10/06 10:34:18;;;;;;;624.65;309.92;;;;;;;;;;5073021;27;1719685;-73
2022/10/06 10:36:56;;;;;;;618.92;309.25;;;;;;;;;;5110889;28;20023;-73
2022/10/06 10:40:57;;;;;;;645.05;308.30;;;;;;;;;;5106985;27;20423;-73
2022/10/06 10:43:23;;;;;;;627.40;309.90;;;;;;;;;;5106095;28;20080;-74
2022/10/06 10:48:57;;;;;;;610.47;316.38;;;;;;;;;;5106234;27;20394;-74
2022/10/06 10:55:19;;;;;;;581.50;305.00;;;;;;;;;;5107338;27;20457;-73
2022/10/06 10:58:56;;;;;;;547.15;298.42;;;;;;;;;;5106364;27;20449;-74
2022/10/06 11:01:45;;;;;;;567.95;301.98;;;;;;;;;;5107782;28;20031;-76
2022/10/06 11:05:16;;;;;;;533.30;297.65;;;;;;;;;;5086101;27;20440;-79
2022/10/06 11:08:46;;;;;;;531.88;286.88;;;;;;;;;;5107008;27;20446;-72
2022/10/06 11:11:36;;;;;;;531.85;299.00;;;;;;;;;;5104100;28;20515;-73
2022/10/06 11:14:08;;;;;;;539.88;291.08;;;;;;;;;;5095254;28;20031;-75
2022/10/06 11:17:00;;;;;;;517.88;291.90;;;;;;;;;;5102077;28;20030;-72
2022/10/06 11:20:23;;;;;;;564.22;299.73;;;;;;;;;;5062630;28;20452;-74
2022/10/06 11:22:53;;;;;;;671.25;316.98;;;;;;;;;;5065227;28;20394;-74
2022/10/06 11:25:31;;;;;;;563.13;298.58;;;;;;;;;;5066409;28;20021;-75
2022/10/06 11:32:21;;;;;;;604.33;298.90;;;;;;;;;;5106244;27;20397;-73
2022/10/06 11:34:51;;;;;;;561.15;299.17;;;;;;;;;;5106288;28;20034;-72
2022/10/06 11:37:17;;;;;;;559.25;303.02;;;;;;;;;;5106472;28;20361;-73
2022/10/06 11:41:08;;;;;;;615.38;303.50;;;;;;;;;;5108721;27;20412;-72
2022/10/06 11:43:44;;;;;;;552.20;305.95;;;;;;;;;;5108434;28;20024;-74
2022/10/06 11:46:30;;;;;;;544.90;305.52;;;;;;;;;;5108631;28;20020;-72
2022/10/06 11:49:15;;;;;;;555.95;305.17;;;;;;;;;;5107607;28;20032;-73
2022/10/06 11:51:41;;;;;;;546.72;300.13;;;;;;;;;;5108517;28;20065;-73
2022/10/06 11:54:27;;;;;;;544.45;289.52;;;;;;;;;;5107067;28;20028;-73
2022/10/06 12:01:51;;;;;;;628.13;310.15;;;;;;;;;;5065149;28;20407;-73
2022/10/06 12:04:17;;;;;;;604.75;305.92;;;;;;;;;;5065617;28;20032;-73
2022/10/06 12:06:44;;;;;;;614.17;316.65;;;;;;;;;;5068067;28;20055;-73
2022/10/06 12:09:34;;;;;;;600.67;312.17;;;;;;;;;;5066259;28;20024;-74
2022/10/06 12:12:04;;;;;;;589.17;315.13;;;;;;;;;;5065717;28;20112;-74
2022/10/06 12:14:33;;;;;;;580.88;310.10;;;;;;;;;;5066736;28;20743;-76
2022/10/06 12:17:29;;;;;;;636.03;316.58;;;;;;;;;;5106557;27;20424;-74
2022/10/06 12:20:13;;;;;;;635.50;313.35;;;;;;;;;;5106394;28;20404;-73
2022/10/06 12:23:02;;;;;;;642.92;316.33;;;;;;;;;;5107230;28;20016;-73
2022/10/06 12:29:19;;;;;;;624.38;312.73;;;;;;;;;;5107775;27;20397;-73
2022/10/06 12:31:53;;;;;;;610.30;303.58;;;;;;;;;;5109203;28;20482;-73
2022/10/06 12:34:37;;;;;;;593.70;310.40;;;;;;;;;;5109086;28;20121;-73
2022/10/06 12:37:22;;;;;;;587.20;312.65;;;;;;;;;;5108578;28;20158;-75
2022/10/06 12:39:48;;;;;;;582.95;318.70;;;;;;;;;;5107940;28;20115;-76
2022/10/06 12:42:24;;;;;;;583.00;314.95;;;;;;;;;;5108060;28;20065;-75
2022/10/06 12:46:16;;;;;;;641.83;318.88;;;;;;;;;;5089562;27;20498;-77
2022/10/06 12:48:55;;;;;;;609.92;311.27;;;;;;;;;;5088641;28;20483;-75
2022/10/06 12:51:33;;;;;;;620.08;316.17;;;;;;;;;;5087587;28;20476;-75
2022/10/06 12:54:03;;;;;;;618.30;318.67;;;;;;;;;;5086149;28;20031;-76
2022/10/06 12:56:31;;;;;;;615.97;315.55;;;;;;;;;;5088521;28;20077;-78
2022/10/06 12:58:57;;;;;;;612.55;310.33;;;;;;;;;;5088357;28;20028;-76
2022/10/06 13:01:24;;;;;;;605.08;313.92;;;;;;;;;;5087476;28;20381;-76
2022/10/06 13:03:51;;;;;;;602.45;314.67;;;;;;;;;;5088745;28;20470;-77
2022/10/06 13:06:24;;;;;;;610.83;314.40;;;;;;;;;;5087924;28;20036;-76
2022/10/06 13:09:12;;;;;;;594.15;310.10;;;;;;;;;;5088968;28;20056;-77
2022/10/06 13:11:38;;;;;;;582.45;316.40;;;;;;;;;;5083164;28;20027;-76
2022/10/06 13:14:09;;;;;;;582.20;308.85;;;;;;;;;;5087904;28;20025;-74
2022/10/06 13:16:39;;;;;;;579.83;315.90;;;;;;;;;;5087976;28;20051;-75
2022/10/06 13:19:13;;;;;;;582.25;315.83;;;;;;;;;;5089120;28;20024;-77
2022/10/06 13:21:39;;;;;;;582.20;317.17;;;;;;;;;;5090372;28;20044;-77
2022/10/06 13:24:05;;;;;;;581.35;313.98;;;;;;;;;;5089680;28;20062;-76
2022/10/06 13:26:33;;;;;;;587.95;312.70;;;;;;;;;;5090175;28;20036;-77
2022/10/06 13:28:59;;;;;;;598.00;317.08;;;;;;;;;;5089038;28;20054;-78
2022/10/06 13:32:33;;;;;;;603.38;303.08;;;;;;;;;;5112091;27;20736;-77
2022/10/06 13:34:59;;;;;;;593.67;306.80;;;;;;;;;;5111260;28;20057;-79
2022/10/06 13:37:26;;;;;;;602.95;318.33;;;;;;;;;;5111009;28;20020;-78
2022/10/06 13:39:52;;;;;;;600.90;319.48;;;;;;;;;;5111207;28;20091;-78
2022/10/06 13:42:20;;;;;;;589.70;308.08;;;;;;;;;;5111120;28;20028;-78
2022/10/06 13:44:54;;;;;;;599.78;309.17;;;;;;;;;;5110536;28;20046;-77
2022/10/06 13:49:45;;;;;;;593.55;312.17;;;;;;;;;;5111508;27;20450;-77
2022/10/06 13:52:19;;;;;;;593.08;314.52;;;;;;;;;;5110991;28;20058;-76
2022/10/06 13:56:35;;;;;;;601.33;311.92;;;;;;;;;;5112148;27;20376;-77
2022/10/06 13:59:21;;;;;;;614.72;306.75;;;;;;;;;;5109555;28;20455;-78
2022/10/06 14:01:48;;;;;;;611.28;306.38;;;;;;;;;;5111194;28;20472;-78
2022/10/06 14:04:17;;;;;;;616.97;315.73;;;;;;;;;;5111156;28;20111;-78
2022/10/06 14:06:58;;;;;;;618.88;309.23;;;;;;;;;;5111305;27;20446;-78
2022/10/06 14:09:25;;;;;;;610.53;302.95;;;;;;;;;;5110013;28;20023;-78
2022/10/06 14:11:53;;;;;;;606.65;306.52;;;;;;;;;;5110778;28;20024;-78
2022/10/06 14:14:19;;;;;;;612.22;306.40;;;;;;;;;;5111227;28;20467;-77
2022/10/06 14:16:47;;;;;;;607.67;314.95;;;;;;;;;;5111130;28;20103;-79
2022/10/06 14:19:33;;;;;;;600.38;314.23;;;;;;;;;;5110739;28;20484;-78
2022/10/06 14:22:37;;;;;;;592.33;310.17;;;;;;;;;;5111453;27;20396;-78
2022/10/06 14:25:10;;;;;;;583.53;309.00;;;;;;;;;;5109950;28;20024;-78
2022/10/06 14:28:14;;;;;;;582.42;307.48;;;;;;;;;;5152755;27;20326;-78
2022/10/06 14:30:40;;;;;;;580.42;303.38;;;;;;;;;;5132002;28;20024;-78
2022/10/06 14:33:06;;;;;;;577.72;307.73;;;;;;;;;;5131468;27;20383;-79
2022/10/06 14:35:32;;;;;;;574.08;301.77;;;;;;;;;;5132020;28;20057;-80
2022/10/06 14:37:58;;;;;;;570.97;308.75;;;;;;;;;;5131662;28;20016;-79
2022/10/06 14:43:56;;;;;;;569.28;296.75;;;;;;;;;;5111352;27;20856;-79
2022/10/06 14:46:26;;;;;;;594.05;311.38;;;;;;;;;;5111272;28;20042;-79
2022/10/06 14:48:52;;;;;;;595.35;310.45;;;;;;;;;;5109425;28;20023;-79
2022/10/06 14:51:19;;;;;;;592.88;310.83;;;;;;;;;;5111395;28;20091;-79
2022/10/06 14:53:55;;;;;;;588.58;310.52;;;;;;;;;;5111144;28;20047;-79
2022/10/06 14:59:21;;;;;;;582.22;300.63;;;;;;;;;;5111893;27;20121;-79
2022/10/06 15:01:48;;;;;;;601.22;306.73;;;;;;;;;;5090620;28;20028;-79
2022/10/06 15:04:47;;;;;;;581.50;295.27;;;;;;;;;;5111596;27;20396;-80
2022/10/06 15:09:59;;;;;;;594.10;310.98;;;;;;;;;;5110887;28;20042;-81
2022/10/06 15:13:14;;;;;;;620.38;301.58;;;;;;;;;;5111758;27;20457;-80
2022/10/06 15:18:57;;;;;;;555.85;302.27;;;;;;;;;;5111804;27;20384;-78
2022/10/06 15:21:24;;;;;;;529.78;294.10;;;;;;;;;;5111789;28;20032;-79
2022/10/06 15:29:45;;;;;;;567.67;305.35;;;;;;;;;;5152484;27;20117;-79
2022/10/06 15:32:14;;;;;;;562.42;303.10;;;;;;;;;;5113985;28;20027;-80
2022/10/06 15:36:31;;;;;;;408.80;253.57;;;;;;;;;;5111614;27;20537;-80
2022/10/06 15:38:58;;;;;;;336.20;221.80;;;;;;;;;;5111469;28;20488;-80
2022/10/06 15:47:59;;;;;;;452.75;267.48;;;;;;;;;;5112080;27;20808;-79
2022/10/06 15:50:26;;;;;;;504.38;284.35;;;;;;;;;;5110939;28;20059;-79
2022/10/06 15:52:52;;;;;;;386.42;248.60;;;;;;;;;;5109976;28;20114;-80
2022/10/06 15:55:19;;;;;;;435.65;262.10;;;;;;;;;;5111391;28;20054;-80
2022/10/06 15:57:45;;;;;;;462.80;275.10;;;;;;;;;;5110859;28;20024;-80
2022/10/06 16:00:24;;;;;;;580.63;375.35;;;;;;;;;;5111438;27;20401;-80
2022/10/06 16:02:50;;;;;;;592.97;338.85;;;;;;;;;;5111349;28;20034;-79
2022/10/06 16:08:08;;;;;;;;;;;;;;;;;;5111674;27;20401;-79
2022/10/06 16:10:34;;;;;;;;;;;;;;;;;;5112000;28;20330;-81
2022/10/06 16:13:00;;;;;;;510.05;284.50;;;;;;;;;;5109928;28;20377;-79
2022/10/06 16:15:26;;;;;;;;;;;;;;;;;;5111721;28;20468;-80
2022/10/06 16:18:35;;;;;;;557.70;333.00;;;;;;;;;;5111736;27;20450;-79
2022/10/06 16:23:20;;;;;;;;;;;;;;;;;;5111790;27;20299;-79
2022/10/06 16:26:25;;;;;;;;;;;;;;;;;;5111962;27;20389;-79
2022/10/06 16:28:51;;;;;;;496.63;288.33;;;;;;;;;;5108945;28;20946;-80
2022/10/06 16:31:17;;;;;;;;;;;;;;;;;;5110304;28;20377;-81
2022/10/06 16:33:44;;;;;;;;;;;;;;;;;;5111251;28;19998;-80
2022/10/06 16:36:10;;;;;;;;;;;;;;;;;;5111675;28;20325;-82
2022/10/06 16:38:36;;;;;;;;;;;;;;;;;;5110188;28;19904;-80
2022/10/06 16:44:59;;;;;;;623.58;315.23;;;;;;;;;;5111474;27;20469;-80
2022/10/06 16:47:25;;;;;;;390.92;253.85;;;;;;;;;;5111053;28;20032;-80
2022/10/06 16:49:51;;;;;;;330.15;242.15;;;;;;;;;;5111403;28;20523;-80
2022/10/06 16:52:18;;;;;;;396.90;262.83;;;;;;;;;;5111295;28;20016;-80
2022/10/06 16:54:44;;;;;;;440.58;268.58;;;;;;;;;;5110793;28;20502;-80
2022/10/06 16:57:59;;;;;;;587.85;299.50;;;;;;;;;;5111861;27;20400;-80